Stations météo

Publicité
Rodkallen, Suède (2188): Température de l'air & dewpoint: 22.03.2020 21:00:00 - 28.03.2020 21:00:00 (CET)Rodkallen, Suède (2188): Vitesse du vent & gusts: 22.03.2020 21:00:00 - 28.03.2020 21:00:00 (CET)Rodkallen, Suède (2188): Direction du vent: 22.03.2020 21:00:00 - 28.03.2020 21:00:00 (CET)Rodkallen, Suède (2188): visibility: 22.03.2020 21:00:00 - 28.03.2020 21:00:00 (CET)Rodkallen, Suède (2188): Quantités de précipitations: 22.03.2020 21:00:00 - 28.03.2020 21:00:00 (CET)
Date & Time tt [°C] td [°C] ff [km/h] ff [knt] fx [km/h] fx [knt] dd vv [km] rr [mm]
28.03.2020 21:00:00 -2,2 -10,0 42 23 58 32 WNW 50 0,0
28.03.2020 20:00:00 -1,9 -10,0 46 25 60 33 WNW 50 0,0
28.03.2020 19:00:00 -1,1 -10,0 37 20 52 28 W 50 0,0
28.03.2020 18:00:00 -1,1 -10,5 22 12 40 21 NW 50 0,0
28.03.2020 17:00:00 -1,2 -9,1 18 10 53 29 WNW 50 0,1
28.03.2020 16:00:00 0,1 -9,9 35 19 66 36 WNW 27 0,0
28.03.2020 15:00:00 0,5 -9,5 39 21 55 30 W 50 0,0
28.03.2020 14:00:00 0,5 -9,5 45 24 58 31 W 48 0,0
28.03.2020 13:00:00 0,6 -9,7 44 24 61 33 W 45 0,0
28.03.2020 12:00:00 0,9 -8,1 41 22 68 37 W 46 0,0
28.03.2020 11:00:00 1,0 -9,6 48 26 66 36 W 48 0,0
28.03.2020 10:00:00 1,0 -8,0 45 24 65 35 WNW 45 0,0
28.03.2020 09:00:00 1,2 -7,6 45 24 68 37 W 46 0,0
28.03.2020 08:00:00 1,4 -6,2 46 25 61 33 W 50 0,0
28.03.2020 07:00:00 1,3 -4,8 46 25 61 33 W 50 0,0
28.03.2020 06:00:00 1,5 -3,8 43 23 53 29 W 50 0,0
28.03.2020 05:00:00 1,7 -3,2 37 20 51 28 WSW 50 0,0
28.03.2020 04:00:00 2,2 -2,9 45 25 66 36 WSW 50 0,0
28.03.2020 03:00:00 2,7 -2,2 45 25 61 33 WSW 50 0,0
28.03.2020 02:00:00 1,8 -1,3 37 20 48 26 SSW 50 0,0
28.03.2020 01:00:00 1,8 -0,9 29 16 40 21 SSW 50 0,0
28.03.2020 00:00:00 1,4 -1,0 31 17 37 20 SSW 50 0,0
27.03.2020 23:00:00 1,6 -1,0 28 15 33 18 SSW 50 0,0
27.03.2020 22:00:00 1,1 -0,6 29 15 37 20 SSW 48 0,0
27.03.2020 21:00:00 1,4 -0,4 30 16 36 19 SSW 50 0,0
27.03.2020 20:00:00 1,4 -0,5 26 14 32 18 SSW 50 0,0
27.03.2020 19:00:00 1,4 -0,5 26 14 32 17 SSW 50 0,0
27.03.2020 18:00:00 1,5 -0,6 24 13 32 17 SSW 50 0,0
27.03.2020 17:00:00 1,9 -0,7 27 14 36 20 SSW 50 0,0
27.03.2020 16:00:00 2,2 -1,0 29 15 37 20 SSW 50 0,0
27.03.2020 15:00:00 2,3 -0,8 28 15 34 19 SSW 49 0,0
27.03.2020 14:00:00 2,4 -0,7 28 15 35 19 S 42 0,0
27.03.2020 13:00:00 2,1 -0,8 29 15 37 20 SSW 46 0,0
27.03.2020 12:00:00 1,7 -0,7 26 14 35 19 S 43 0,0
27.03.2020 11:00:00 1,6 -0,8 24 13 38 20 S 39 0,0
27.03.2020 10:00:00 1,5 -0,8 28 15 38 21 SSW 50 0,0
27.03.2020 09:00:00 1,4 -1,0 21 11 27 15 S 47 0,0
27.03.2020 08:00:00 1,5 -1,2 21 11 26 14 SW 46 0,0
27.03.2020 07:00:00 0,8 -1,0 18 10 27 14 SW 47 0,0
27.03.2020 06:00:00 0,9 -1,3 18 10 32 17 SW 50 0,0
27.03.2020 05:00:00 1,4 -1,3 27 15 34 18 SW 50 0,0
27.03.2020 04:00:00 1,4 -1,2 22 12 35 19 SW 50 0,0
27.03.2020 03:00:00 1,5 -1,2 21 11 33 18 SW 50 0,0
27.03.2020 02:00:00 1,8 -1,3 26 14 32 18 SW 50 0,0
27.03.2020 01:00:00 1,3 -1,1 25 14 36 19 SW 50 0,0
27.03.2020 00:00:00 1,6 -1,5 29 16 36 19 SW 50 0,0
26.03.2020 23:00:00 1,5 -1,4 29 16 41 22 SW 50 0,0
26.03.2020 22:00:00 1,6 -1,6 35 19 46 25 SSW 50 0,0
26.03.2020 21:00:00 2,2 -1,8 31 17 38 21 SSW 50 0,0
26.03.2020 20:00:00 1,7 -1,6 24 13 28 15 SSW 50 0,0
26.03.2020 19:00:00 1,3 -1,3 20 11 29 16 S 50 0,0
26.03.2020 18:00:00 1,3 -1,3 23 12 29 16 S 50 0,0
26.03.2020 17:00:00 1,4 -1,2 22 12 31 17 S 47 0,0
26.03.2020 16:00:00 1,4 -1,0 23 13 31 17 S 45 0,0
26.03.2020 15:00:00 1,7 -1,4 21 12 31 17 S 46 0,0
26.03.2020 14:00:00 2,2 -2,0 26 14 33 18 SSW 46 0,0
26.03.2020 13:00:00 1,9 -1,7 24 13 32 17 SSW 43 0,0
26.03.2020 12:00:00 1,5 -1,6 18 10 25 14 SSW 40 0,0
26.03.2020 11:00:00 1,3 -1,6 18 10 27 15 SSW 39 0,0
26.03.2020 10:00:00 0,8 -1,8 22 12 29 16 SSW 41 0,0
26.03.2020 09:00:00 0,7 -1,7 19 10 27 14 SSW 34 0,0
26.03.2020 08:00:00 0,6 -2,5 16 9 27 15 W 42 0,0
26.03.2020 07:00:00 0,6 -2,6 13 7 27 14 SW 36 0,0
26.03.2020 06:00:00 0,6 -2,1 20 11 23 12 WSW 42 0,0
26.03.2020 05:00:00 0,5 -2,4 13 7 24 13 WSW 50 0,0
26.03.2020 04:00:00 0,6 -2,4 17 9 26 14 W 50 0,0
26.03.2020 03:00:00 1,1 -2,0 26 14 29 16 WSW 50 0,0
26.03.2020 02:00:00 1,1 -1,6 20 11 34 19 WSW 50 0,0
26.03.2020 01:00:00 1,5 -1,7 29 16 39 21 W 50 0,0
26.03.2020 00:00:00 1,5 -1,4 29 16 39 21 W 50 0,0
25.03.2020 23:00:00 1,7 -0,1 29 16 35 19 W 50 0,0
25.03.2020 22:00:00 1,4 0,2 29 15 32 18 WSW 50 0,0
25.03.2020 21:00:00 1,6 -0,2 27 14 36 19 WSW 50 0,0
25.03.2020 20:00:00 1,9 0,1 26 14 37 20 W 50 0,0
25.03.2020 19:00:00 2,7 0,8 32 18 42 23 W 48 0,1
25.03.2020 18:00:00 3,7 1,0 31 17 52 28 W 50 0,1
25.03.2020 17:00:00 3,7 0,4 28 15 45 25 W 50 0,0
25.03.2020 16:00:00 3,5 -0,2 17 9 31 17 WSW 50 0,0
25.03.2020 15:00:00 3,9 -0,1 27 15 35 19 SW 42 0,0
25.03.2020 14:00:00 3,8 -0,4 28 15 35 19 SW 41 0,0
25.03.2020 13:00:00 2,3 -0,6 27 14 38 21 SW 26 0,0
25.03.2020 12:00:00 2,7 -0,9 33 18 45 24 SSW 28 0,0
25.03.2020 11:00:00 2,4 -1,0 40 22 54 29 SSW 21 0,0
25.03.2020 10:00:00 2,1 -0,9 43 23 51 27 S 17 0,0
25.03.2020 09:00:00 2,4 -1,0 41 22 54 29 SSW 21 0,0
25.03.2020 08:00:00 1,6 -1,0 44 24 53 29 S 15 0,0
25.03.2020 07:00:00 1,5 -1,1 43 23 50 27 S 16 0,0
25.03.2020 06:00:00 1,5 -1,2 44 24 52 28 S 17 0,0
25.03.2020 05:00:00 1,7 -1,4 39 21 47 26 SSW 20 0,0
25.03.2020 04:00:00 1,7 -1,3 38 21 49 27 SSW 22 0,0
25.03.2020 03:00:00 1,5 -1,2 38 21 46 25 S 19 0,0
25.03.2020 02:00:00 1,3 -1,1 28 15 38 20 S 20 0,0
25.03.2020 01:00:00 1,5 -1,2 29 16 35 19 SSW 30 0,0
25.03.2020 00:00:00 1,5 -1,4 28 15 38 20 SSW 38 0,0
24.03.2020 23:00:00 1,7 -1,4 29 16 35 19 SSW 27 0,0
24.03.2020 22:00:00 1,7 -1,2 28 15 44 24 SSW 25 0,0
24.03.2020 21:00:00 1,9 -1,2 31 17 37 20 SSW 34 0,0
24.03.2020 20:00:00 1,8 -1,1 34 18 44 24 SSW 30 0,0
24.03.2020 19:00:00 1,9 -0,8 33 18 41 22 S 22 0,0
24.03.2020 18:00:00 1,8 -1,1 34 18 47 25 SSW 24 0,0
24.03.2020 17:00:00 1,9 -1,2 41 22 50 27 SSW 23 0,0
24.03.2020 16:00:00 2,2 -1,5 30 16 48 26 SSW 24 0,0
24.03.2020 15:00:00 2,3 -1,7 43 23 49 27 SSW 29 0,0
24.03.2020 14:00:00 2,0 -1,6 41 22 49 26 SSW 29 0,0
24.03.2020 13:00:00 1,3 -1,4 40 21 50 27 S 21 0,0
24.03.2020 12:00:00 1,7 -1,9 40 22 48 26 SSW 27 0,0
24.03.2020 11:00:00 1,7 -1,7 37 20 47 25 SSW 32 0,0
24.03.2020 10:00:00 1,3 -1,8 37 20 51 28 SSW 33 0,0
24.03.2020 09:00:00 1,3 -1,9 41 22 48 26 S 30 0,0
24.03.2020 08:00:00 1,2 -2,0 39 21 45 24 SSW 34 0,0
24.03.2020 07:00:00 1,0 -1,7 35 19 46 25 SSW 35 0,0
24.03.2020 06:00:00 0,8 -1,3 37 20 45 24 S 22 0,0
24.03.2020 05:00:00 0,9 -1,2 37 20 45 24 S 22 0,0
24.03.2020 04:00:00 1,1 -1,1 34 18 45 24 S 23 0,0
24.03.2020 03:00:00 1,0 -1,1 30 16 38 20 S 24 0,0
24.03.2020 02:00:00 0,7 -0,6 29 16 45 24 S 18 0,0
24.03.2020 01:00:00 0,7 -0,5 32 17 50 27 S 16 0,0
24.03.2020 00:00:00 0,7 -0,5 44 24 52 28 S 15 0,0
23.03.2020 23:00:00 0,6 -0,5 41 22 50 27 S 15 0,0
23.03.2020 22:00:00 0,6 -0,5 42 23 53 29 S 13 0,0
23.03.2020 21:00:00 0,6 -0,5 41 22 57 31 S 13 0,0
23.03.2020 20:00:00 0,7 -0,6 48 26 61 33 S 13 0,0
23.03.2020 19:00:00 0,6 -0,9 48 26 68 37 S 17 0,0
23.03.2020 18:00:00 0,7 -0,9 55 30 69 37 S 14 0,0
23.03.2020 17:00:00 0,6 -1,0 52 28 66 35 S 19 0,0
23.03.2020 16:00:00 0,6 -1,1 51 28 63 34 S 27 0,0
23.03.2020 15:00:00 0,6 -1,3 46 25 59 32 S 29 0,0
23.03.2020 14:00:00 0,7 -1,4 41 22 56 31 S 30 0,0
23.03.2020 13:00:00 0,7 -1,4 43 23 51 28 S 46 0,0
23.03.2020 12:00:00 0,6 -1,6 39 21 45 24 S 37 0,0
23.03.2020 11:00:00 0,9 -2,7 29 16 35 19 S 44 0,0
23.03.2020 10:00:00 0,6 -2,6 26 14 31 17 S 43 0,0
23.03.2020 09:00:00 0,6 -3,0 24 13 35 19 SSW 41 0,0
23.03.2020 08:00:00 0,7 -2,7 21 11 41 22 SSW 50 0,0
23.03.2020 07:00:00 1,0 -3,7 34 18 40 22 SW 50 0,0
23.03.2020 06:00:00 0,4 -2,6 27 15 39 21 SSW 50 0,0
23.03.2020 05:00:00 1,1 -4,0 30 16 44 24 SSW 50 0,0
23.03.2020 04:00:00 1,6 -4,1 30 16 36 20 SW 50 0,0
23.03.2020 03:00:00 0,8 -3,9 29 16 41 22 SSW 50 0,0
23.03.2020 02:00:00 0,7 -4,0 36 20 43 23 SW 50 0,0
23.03.2020 01:00:00 0,8 -3,7 39 21 49 26 SW 50 0,0
23.03.2020 00:00:00 0,9 -3,8 39 21 46 25 SW 50 0,0
22.03.2020 23:00:00 0,9 -3,6 39 21 52 28 SW 50 0,0
22.03.2020 22:00:00 0,5 -2,9 39 21 49 27 SSW 50 0,0
22.03.2020 21:00:00 0,6 -2,8 36 19 49 26 SSW 50 0,0

tt = Température de l'air
td = dewpoint
ff = Vitesse du vent
fx = gusts
dd = Direction du vent
vv = visibility
rr = Quantités de précipitations

stations d'obs. à proximité